Time;durP1;ratioP1;P1;durP2;ratioP2;P2;SDS_P1;SDS_P2;PMS_P1;PMS_P2;Temp;Humidity;BMP_temperature;BMP_pressure;BME280_temperature;BME280_humidity;BME280_pressure;Samples;Min_cycle;Max_cycle;Signal;HPM_P1;HPM_P2
2022/04/11 00:00:33;;;;;;;14.40;9.43;;;;;;;19.27;50.41;99264.82;1704012;83;21234;-54
2022/04/11 00:03:00;;;;;;;14.93;10.47;;;;;;;19.29;50.47;99265.36;1705779;82;21301;-54
2022/04/11 00:05:27;;;;;;;14.40;10.20;;;;;;;19.25;50.86;99268.80;1692517;84;21286;-62
2022/04/11 00:07:55;;;;;;;14.33;10.47;;;;;;;19.22;50.52;99279.36;1673844;85;21795;-54
2022/04/11 00:10:21;;;;;;;14.63;11.27;;;;;;;19.19;50.60;99272.74;1692836;84;21671;-54
2022/04/11 00:12:49;;;;;;;15.57;10.37;;;;;;;19.13;51.10;99276.45;1737993;82;21100;-54
2022/04/11 00:15:16;;;;;;;13.80;10.47;;;;;;;19.14;51.52;99276.71;1740830;82;21268;-56
2022/04/11 00:17:44;;;;;;;13.80;9.97;;;;;;;19.09;51.82;99278.04;1669644;84;21245;-61
2022/04/11 00:20:11;;;;;;;15.43;10.27;;;;;;;19.26;51.84;99279.63;1740934;82;21612;-55
2022/04/11 00:22:39;;;;;;;16.17;10.33;;;;;;;19.24;52.16;99272.48;1739409;82;21232;-55
2022/04/11 00:25:07;;;;;;;16.03;10.70;;;;;;;19.30;52.25;99267.47;1740610;82;21690;-54
2022/04/11 00:27:36;;;;;;;15.93;10.63;;;;;;;19.29;52.20;99268.00;1710767;82;21275;-54
2022/04/11 00:30:03;;;;;;;14.23;9.63;;;;;;;19.37;51.81;99271.44;1740329;82;21050;-54
2022/04/11 00:32:31;;;;;;;14.70;10.17;;;;;;;19.51;51.42;99273.53;1739503;82;21216;-55
2022/04/11 00:34:59;;;;;;;16.13;10.03;;;;;;;19.39;52.10;99263.23;1703679;83;21248;-54
2022/04/11 00:37:26;;;;;;;15.10;9.70;;;;;;;19.45;52.24;99260.33;1713462;83;21298;-55
2022/04/11 00:39:54;;;;;;;18.43;10.20;;;;;;;19.33;53.22;99262.45;1667609;84;21762;-55
2022/04/11 00:42:21;;;;;;;15.43;10.40;;;;;;;19.38;53.07;99263.77;1712843;83;21320;-56
2022/04/11 00:44:49;;;;;;;13.17;8.80;;;;;;;19.48;53.19;99264.83;1686041;83;21261;-55
2022/04/11 00:47:17;;;;;;;14.07;9.67;;;;;;;18.78;55.74;99265.29;1713371;83;21246;-56
2022/04/11 00:49:47;;;;;;;20.43;9.90;;;;;;;19.00;56.47;99265.07;1712495;83;21150;-56
2022/04/11 00:52:14;;;;;;;15.13;10.17;;;;;;;19.20;56.84;99260.33;1713434;83;21729;-56
2022/04/11 00:54:41;;;;;;;18.00;10.63;;;;;;;19.32;56.02;99255.59;1715086;82;21724;-57
2022/04/11 00:57:09;;;;;;;14.43;9.80;;;;;;;19.43;55.22;99259.00;1671522;84;21247;-56
2022/04/11 00:59:36;;;;;;;14.80;10.40;;;;;;;19.28;54.89;99253.72;1739405;82;21346;-54
2022/04/11 01:02:05;;;;;;;15.00;10.20;;;;;;;19.35;55.45;99260.32;1739700;82;21101;-55
2022/04/11 01:04:32;;;;;;;16.23;10.53;;;;;;;19.35;55.71;99252.92;1755923;80;21728;-56
2022/04/11 01:06:59;;;;;;;15.20;10.50;;;;;;;18.72;57.35;99254.47;1773951;80;21771;-53
2022/04/11 01:09:27;;;;;;;15.77;9.60;;;;;;;18.82;59.99;99251.83;1773813;80;21345;-55
2022/04/11 01:11:56;;;;;;;13.93;8.70;;;;;;;18.98;60.44;99255.31;1773857;80;21230;-57
2022/04/11 01:14:22;;;;;;;15.07;8.43;;;;;;;19.32;59.75;99252.13;1731751;82;21423;-55
2022/04/11 01:16:53;;;;;;;13.20;8.57;;;;;;;19.25;62.43;99250.31;1754582;80;21187;-54
2022/04/11 01:19:20;;;;;;;16.15;8.60;;;;;;;19.56;59.75;99258.47;1776568;80;21441;-54
2022/04/11 01:21:47;;;;;;;15.17;8.50;;;;;;;19.71;59.14;99255.58;1761802;80;21072;-55
2022/04/11 01:24:23;;;;;;;14.47;8.80;;;;;;;19.78;58.39;99245.52;1705383;83;21297;-60
2022/04/11 01:26:51;;;;;;;15.77;9.10;;;;;;;20.21;56.26;99248.55;1704895;83;21647;-54
2022/04/11 01:29:19;;;;;;;13.07;8.03;;;;;;;19.85;56.06;99256.58;1704927;84;21368;-55
2022/04/11 01:31:47;;;;;;;16.87;8.40;;;;;;;19.82;56.52;99259.25;1775541;80;21303;-55
2022/04/11 01:34:15;;;;;;;10.87;7.27;;;;;;;19.79;57.92;99250.53;1776278;80;21747;-60
2022/04/11 01:36:42;;;;;;;12.23;7.50;;;;;;;19.50;59.39;99257.41;1752397;80;21850;-56
2022/04/11 01:39:11;;;;;;;12.37;7.53;;;;;;;19.17;62.38;99254.27;1758667;80;21294;-56
2022/04/11 01:41:38;;;;;;;12.70;7.67;;;;;;;19.17;62.38;99254.27;1775157;80;21548;-57
2022/04/11 01:44:07;;;;;;;16.50;8.30;;;;;;;19.15;66.35;99251.88;1777022;80;21217;-55
2022/04/11 01:46:34;;;;;;;10.77;7.60;;;;;;;19.97;60.13;99241.77;1774658;80;21757;-56
2022/04/11 01:49:08;;;;;;;14.73;7.90;;;;;;;19.97;60.13;99241.77;1776241;80;21423;-55
2022/04/11 01:51:37;;;;;;;14.57;8.00;;;;;;;20.09;57.71;99248.86;1775035;80;21269;-55
2022/04/11 01:54:04;;;;;;;10.70;7.07;;;;;;;20.09;57.71;99248.86;1777486;80;22555;-55
2022/04/11 01:56:31;;;;;;;15.20;8.30;;;;;;;20.19;57.74;99246.16;1775342;80;21328;-56
2022/04/11 01:58:58;;;;;;;13.57;7.63;;;;;;;20.13;58.38;99244.61;1739223;81;21823;-55
2022/04/11 02:01:25;;;;;;;11.90;7.30;;;;;;;20.13;58.38;99244.61;1705663;83;21437;-57
2022/04/11 02:03:52;;;;;;;14.23;7.33;;;;;;;19.34;63.62;99253.45;1755441;80;21337;-54
2022/04/11 02:06:18;;;;;;;14.13;7.90;;;;;;;19.37;63.29;99254.26;1786195;80;21924;-58
2022/04/11 02:08:45;;;;;;;12.07;7.57;;;;;;;19.24;63.47;99248.17;1746107;82;21482;-56
2022/04/11 02:11:15;;;;;;;11.97;7.40;;;;;;;19.24;63.47;99248.17;1735861;82;21486;-53
2022/04/11 02:13:42;;;;;;;13.50;8.33;;;;;;;19.14;65.12;99248.19;1770477;80;21153;-53
2022/04/11 02:16:10;;;;;;;11.13;7.67;;;;;;;19.14;65.12;99248.19;1718928;83;21926;-54
2022/04/11 02:18:37;;;;;;;13.53;8.63;;;;;;;18.86;68.71;99242.86;1720895;82;21264;-54
2022/04/11 02:21:05;;;;;;;15.70;8.20;;;;;;;18.86;68.71;99242.86;1718694;83;21497;-55
2022/04/11 02:23:34;;;;;;;12.30;7.80;;;;;;;18.87;68.67;99243.94;1721235;82;21371;-53
2022/04/11 02:26:01;;;;;;;13.90;8.27;;;;;;;18.87;70.27;99241.83;1719175;83;21762;-55
2022/04/11 02:28:28;;;;;;;13.57;8.07;;;;;;;18.80;71.79;99240.75;1719944;82;21203;-55
2022/04/11 02:30:55;;;;;;;10.93;7.90;;;;;;;18.99;71.24;99241.04;1757789;80;21329;-57
2022/04/11 02:33:23;;;;;;;13.43;8.00;;;;;;;18.89;71.61;99239.17;1690850;83;21067;-54
2022/04/11 02:35:52;;;;;;;12.97;8.60;;;;;;;18.90;71.20;99239.45;1720790;82;21389;-54
2022/04/11 02:38:19;;;;;;;13.03;7.87;;;;;;;18.59;71.93;99239.87;1718723;83;21286;-55
2022/04/11 02:40:46;;;;;;;12.40;8.03;;;;;;;18.36;72.62;99248.25;1721434;82;21721;-55
2022/04/11 02:43:22;;;;;;;10.93;7.43;;;;;;;18.37;75.35;99246.69;1729084;80;21858;-54
2022/04/11 02:45:51;;;;;;;10.57;7.00;;;;;;;18.35;77.38;99247.99;1735323;82;21270;-54
2022/04/11 02:48:21;;;;;;;11.60;7.70;;;;;;;18.17;82.34;99242.64;1781860;80;21320;-57
2022/04/11 02:50:51;;;;;;;11.30;8.30;;;;;;;18.26;82.05;99243.75;1783519;80;21353;-56
2022/04/11 02:53:21;;;;;;;13.08;7.30;;;;;;;18.13;82.99;99241.57;1772927;80;21005;-55
2022/04/11 02:55:48;;;;;;;12.93;7.10;;;;;;;18.26;83.59;99243.75;1718786;83;21148;-55
2022/04/11 02:58:15;;;;;;;11.80;7.10;;;;;;;18.42;82.36;99242.74;1720390;82;21288;-62
2022/04/11 03:00:42;;;;;;;15.23;7.67;;;;;;;18.44;82.93;99242.47;1756461;76;21701;-55
2022/04/11 03:03:13;;;;;;;11.27;8.03;;;;;;;18.40;82.14;99245.36;1876542;76;21151;-56
2022/04/11 03:05:42;;;;;;;12.13;7.07;;;;;;;18.42;83.18;99246.70;1876755;76;21285;-55
2022/04/11 03:08:09;;;;;;;11.77;6.80;;;;;;;18.42;84.64;99248.55;1879998;76;21817;-61
2022/04/11 03:10:37;;;;;;;10.97;7.00;;;;;;;18.17;86.49;99242.11;1855534;76;21260;-55
2022/04/11 03:13:06;;;;;;;11.37;7.53;;;;;;;18.21;89.76;99243.17;1876665;76;21087;-55
2022/04/11 03:15:34;;;;;;;10.83;7.27;;;;;;;18.33;89.43;99242.16;1874805;76;21222;-55
2022/04/11 03:18:02;;;;;;;10.07;6.60;;;;;;;18.40;89.46;99244.05;1878651;76;21260;-55
2022/04/11 03:20:30;;;;;;;13.50;7.03;;;;;;;18.90;83.63;99238.64;1876413;75;21748;-55
2022/04/11 03:22:58;;;;;;;14.57;6.87;;;;;;;18.80;86.10;99238.64;1864267;76;22062;-55
2022/04/11 03:25:25;;;;;;;11.20;7.00;;;;;;;18.80;86.10;99238.64;1856024;76;21371;-55
2022/04/11 03:27:53;;;;;;;10.87;7.27;;;;;;;19.37;79.51;99248.97;1875792;76;21477;-54
2022/04/11 03:30:20;;;;;;;10.00;6.37;;;;;;;19.74;75.77;99245.80;1878306;76;21430;-59
2022/04/11 03:32:47;;;;;;;11.53;6.43;;;;;;;19.74;75.77;99245.80;1876946;76;21709;-54
2022/04/11 03:35:15;;;;;;;9.77;6.53;;;;;;;19.69;79.58;99250.01;1856884;76;21420;-54
2022/04/11 03:37:42;;;;;;;13.13;7.03;;;;;;;21.06;65.49;99239.89;1880197;76;21651;-55
2022/04/11 03:40:12;;;;;;;8.77;6.03;;;;;;;21.06;65.49;99239.89;1875702;75;21737;-62
2022/04/11 03:42:40;;;;;;;9.33;6.57;;;;;;;21.59;60.77;99237.84;1875110;76;21477;-55
2022/04/11 03:45:10;;;;;;;12.73;6.53;;;;;;;21.80;57.18;99239.77;1876925;76;21478;-55
2022/04/11 03:47:38;;;;;;;9.43;6.27;;;;;;;22.06;54.59;99238.95;1876687;76;21417;-55
2022/04/11 03:50:06;;;;;;;12.20;6.63;;;;;;;21.99;53.50;99247.79;1878479;76;20980;-62
2022/04/11 03:52:35;;;;;;;10.77;6.30;;;;;;;22.01;53.03;99240.33;1876645;76;20868;-56
2022/04/11 03:55:04;;;;;;;10.07;6.23;;;;;;;22.33;50.97;99236.52;1878391;76;21291;-58
2022/04/11 03:57:32;;;;;;;10.23;6.17;;;;;;;22.38;50.83;99235.66;1877096;76;21196;-56
2022/04/11 04:00:00;;;;;;;7.93;5.83;;;;;;;22.20;50.66;99227.12;1866690;76;20981;-55
2022/04/11 04:02:27;;;;;;;8.23;5.77;;;;;;;22.24;50.18;99230.81;1875298;76;20915;-57
2022/04/11 04:04:55;;;;;;;9.30;6.50;;;;;;;22.20;49.88;99235.91;1875712;76;21395;-55
2022/04/11 04:07:22;;;;;;;10.70;5.70;;;;;;;21.94;50.45;99238.58;1876507;76;20956;-56
2022/04/11 04:09:48;;;;;;;10.67;5.97;;;;;;;21.93;51.01;99240.41;1880043;76;21237;-55
2022/04/11 04:12:20;;;;;;;8.73;5.30;;;;;;;22.24;50.85;99241.44;1876768;76;20911;-57
2022/04/11 04:14:57;;;;;;;;;;;;;;;22.65;50.24;99242.20;1879225;75;20971;-55
2022/04/11 04:17:26;;;;;;;9.70;4.87;;;;;;;23.38;48.37;99244.30;1876561;76;20180;-55
2022/04/11 04:19:55;;;;;;;11.47;5.40;;;;;;;23.64;46.67;99237.17;1876208;75;21026;-55
2022/04/11 04:22:23;;;;;;;7.80;5.60;;;;;;;23.39;46.28;99247.19;1876071;76;21135;-56
2022/04/11 04:24:50;;;;;;;8.57;5.17;;;;;;;23.38;45.94;99246.95;1876641;76;21069;-55
2022/04/11 04:27:16;;;;;;;8.90;5.60;;;;;;;23.17;46.21;99255.01;1877967;76;21064;-55
2022/04/11 04:29:44;;;;;;;9.60;5.70;;;;;;;23.22;45.95;99248.27;1878175;76;20967;-58
2022/04/11 04:32:11;;;;;;;8.40;5.20;;;;;;;23.10;46.08;99251.38;1878684;76;20873;-62
2022/04/11 04:34:39;;;;;;;12.63;5.30;;;;;;;22.99;46.22;99253.41;1874519;76;21780;-56
2022/04/11 04:37:06;;;;;;;8.17;5.23;;;;;;;23.52;46.70;99254.42;1876184;76;21209;-56
2022/04/11 04:39:34;;;;;;;9.30;5.10;;;;;;;24.09;45.65;99253.39;1874898;76;20888;-55
2022/04/11 04:42:02;;;;;;;9.60;5.33;;;;;;;24.95;43.39;99252.09;1878582;76;21022;-56
2022/04/11 04:44:29;;;;;;;7.40;5.20;;;;;;;25.91;41.57;99244.09;1856434;76;21535;-55
2022/04/11 04:46:57;;;;;;;8.00;5.00;;;;;;;26.82;39.81;99243.86;1863865;76;21144;-57
2022/04/11 04:49:32;;;;;;;7.03;4.33;;;;;;;27.00;37.78;99243.30;1877633;75;21125;-54
2022/04/11 04:51:59;;;;;;;8.47;4.87;;;;;;;26.70;37.47;99244.50;1864631;76;20911;-56
2022/04/11 04:54:27;;;;;;;7.63;4.80;;;;;;;26.23;37.49;99246.16;1875970;76;20958;-63
2022/04/11 04:56:55;;;;;;;12.30;5.80;;;;;;;25.84;38.09;99248.57;1875973;76;21521;-55
2022/04/11 04:59:23;;;;;;;8.50;4.93;;;;;;;25.59;38.51;99245.21;1877896;76;21775;-56
2022/04/11 05:01:50;;;;;;;9.03;4.57;;;;;;;25.28;38.73;99249.21;1868874;76;20982;-55
2022/04/11 05:04:18;;;;;;;10.63;5.17;;;;;;;24.80;39.26;99250.56;1862380;76;20903;-63
2022/04/11 05:06:46;;;;;;;10.00;4.70;;;;;;;24.51;39.93;99254.96;1861511;76;20955;-58
2022/04/11 05:09:13;;;;;;;28.30;25.50;;;;;;;24.45;40.43;99254.27;1861882;76;20975;-56
2022/04/11 05:11:42;;;;;;;10.10;6.60;;;;;;;24.54;40.48;99245.02;1861691;76;21265;-55
2022/04/11 05:14:12;;;;;;;9.17;4.87;;;;;;;24.41;40.71;99243.19;1862289;77;20896;-56
2022/04/11 05:16:38;;;;;;;12.20;4.90;;;;;;;24.46;40.87;99250.51;1861081;77;21427;-57
2022/04/11 05:19:07;;;;;;;8.50;4.57;;;;;;;24.72;40.69;99245.41;1861437;76;21106;-56
2022/04/11 05:21:35;;;;;;;6.87;4.53;;;;;;;24.74;40.66;99243.80;1861607;76;21380;-55
2022/04/11 05:24:05;;;;;;;9.83;4.93;;;;;;;24.96;40.37;99248.33;1848613;77;21559;-55
2022/04/11 05:26:32;;;;;;;10.70;4.53;;;;;;;25.10;39.96;99236.31;1851795;76;20904;-57
2022/04/11 05:28:59;;;;;;;8.47;4.90;;;;;;;25.20;39.78;99234.73;1838031;76;21433;-55
2022/04/11 05:31:26;;;;;;;23.97;21.53;;;;;;;25.17;39.41;99230.00;1848630;76;20966;-56
2022/04/11 05:33:55;;;;;;;19.53;16.80;;;;;;;24.96;39.63;99233.15;1851232;76;20975;-56
2022/04/11 05:36:22;;;;;;;54.57;49.03;;;;;;;24.83;39.79;99233.19;1826613;76;22095;-55
2022/04/11 05:38:48;;;;;;;17.13;14.00;;;;;;;24.78;39.67;99231.98;1848996;76;20914;-57
2022/04/11 05:41:17;;;;;;;10.27;6.10;;;;;;;24.76;39.74;99226.94;1848267;77;21042;-55
2022/04/11 05:43:45;;;;;;;9.63;6.03;;;;;;;24.96;39.44;99225.15;1848206;77;21043;-57
2022/04/11 05:46:13;;;;;;;9.37;5.60;;;;;;;25.08;39.30;99224.59;1852318;76;20984;-56
2022/04/11 05:48:44;;;;;;;8.50;5.00;;;;;;;25.26;39.31;99222.83;1847927;77;21287;-55
2022/04/11 05:51:11;;;;;;;10.23;5.43;;;;;;;25.58;38.75;99226.30;1847904;77;20892;-53
2022/04/11 05:53:38;;;;;;;9.33;5.27;;;;;;;25.88;38.12;99213.48;1850050;76;21066;-56
2022/04/11 05:56:06;;;;;;;9.27;5.33;;;;;;;26.20;37.49;99209.61;1848659;77;20966;-54
2022/04/11 05:58:34;;;;;;;9.37;4.80;;;;;;;26.61;37.00;99215.66;1850014;76;21018;-55
2022/04/11 06:01:02;;;;;;;16.60;14.70;;;;;;;27.02;36.10;99209.02;1847971;77;21607;-54
2022/04/11 06:03:29;;;;;;;8.30;6.60;;;;;;;27.47;35.49;99212.62;1842637;76;20955;-55
2022/04/11 06:05:55;;;;;;;11.83;6.70;;;;;;;27.67;34.93;99205.20;1879566;76;21043;-54
2022/04/11 06:08:22;;;;;;;8.03;6.83;;;;;;;27.89;34.37;99208.20;1878176;76;21446;-57
2022/04/11 06:10:49;;;;;;;44.57;40.67;;;;;;;28.20;34.15;99207.84;1874030;76;20916;-59
2022/04/11 06:13:18;;;;;;;8.43;5.53;;;;;;;28.20;33.71;99202.49;1878262;76;21847;-55
2022/04/11 06:15:47;;;;;;;13.13;8.43;;;;;;;28.45;33.26;99199.43;1874705;76;20962;-55
2022/04/11 06:18:14;;;;;;;8.73;5.70;;;;;;;28.59;33.01;99205.84;1878120;76;20946;-55
2022/04/11 06:20:45;;;;;;;44.17;40.43;;;;;;;28.76;32.66;99204.92;1876446;76;20978;-60
2022/04/11 06:23:13;;;;;;;14.00;12.75;;;;;;;28.82;32.93;99203.59;1878445;76;21003;-55
2022/04/11 06:25:40;;;;;;;9.07;5.33;;;;;;;29.45;32.26;99192.69;1876480;76;21212;-57
2022/04/11 06:28:09;;;;;;;14.43;13.13;;;;;;;30.06;30.85;99192.69;1857309;76;20955;-56
2022/04/11 06:30:36;;;;;;;9.90;5.47;;;;;;;30.26;30.98;99190.42;1855869;76;20976;-56
2022/04/11 06:33:05;;;;;;;16.02;11.95;;;;;;;30.82;30.14;99193.72;1877742;76;20971;-62
2022/04/11 06:35:32;;;;;;;8.83;5.50;;;;;;;31.33;29.92;99186.36;1874753;76;21082;-56
2022/04/11 06:37:58;;;;;;;9.53;5.28;;;;;;;32.30;28.71;99179.89;1873150;76;21128;-56
2022/04/11 06:40:25;;;;;;;6.95;4.60;;;;;;;32.69;27.65;99181.48;1874268;76;20888;-55
2022/04/11 06:42:52;;;;;;;9.30;5.03;;;;;;;33.33;27.27;99185.86;1878450;76;21525;-55
2022/04/11 06:45:38;;;;;;;6.67;4.75;;;;;;;33.99;26.29;99178.41;1873488;76;21088;-54
2022/04/11 06:48:07;;;;;;;10.65;5.47;;;;;;;34.77;25.35;99177.77;1878122;75;21504;-55
2022/04/11 06:50:34;;;;;;;6.95;4.75;;;;;;;35.50;24.60;99177.48;1876550;76;21115;-55
2022/04/11 06:53:01;;;;;;;7.72;4.53;;;;;;;35.97;23.92;99169.62;1875688;76;21311;-58
2022/04/11 06:55:28;;;;;;;8.15;4.67;;;;;;;36.28;23.14;99173.64;1878216;76;20915;-56
2022/04/11 06:57:55;;;;;;;11.00;5.33;;;;;;;36.27;23.19;99170.16;1878479;76;21252;-55
2022/04/11 07:00:22;;;;;;;21.68;19.75;;;;;;;36.54;22.54;99165.22;1876749;76;20958;-54
2022/04/11 07:02:50;;;;;;;10.08;7.03;;;;;;;36.41;22.58;99159.16;1875128;76;21115;-55
2022/04/11 07:05:17;;;;;;;8.85;4.72;;;;;;;36.69;22.51;99155.16;1876254;76;21546;-59
2022/04/11 07:07:46;;;;;;;10.58;5.35;;;;;;;36.90;22.08;99147.64;1876732;76;21275;-55
2022/04/11 07:10:13;;;;;;;9.55;5.12;;;;;;;36.63;21.80;99145.06;1876822;76;20966;-55
2022/04/11 07:12:41;;;;;;;7.72;4.65;;;;;;;36.29;22.17;99148.86;1876742;76;20979;-54
2022/04/11 07:15:21;;;;;;;10.10;5.47;;;;;;;36.35;22.30;99147.89;1806073;79;20927;-55
2022/04/11 07:17:49;;;;;;;8.05;5.42;;;;;;;36.81;21.76;99143.73;1806905;79;21790;-57
2022/04/11 07:20:17;;;;;;;8.43;4.60;;;;;;;36.39;21.51;99145.96;1807159;79;20970;-56
2022/04/11 07:22:45;;;;;;;8.30;4.80;;;;;;;35.87;22.19;99150.77;1807278;79;21029;-55
2022/04/11 07:25:13;;;;;;;9.50;5.03;;;;;;;35.75;22.26;99147.03;1806948;79;20924;-61
2022/04/11 07:27:41;;;;;;;9.85;4.33;;;;;;;35.36;22.31;99146.19;1807454;79;21763;-55
2022/04/11 07:30:09;;;;;;;9.90;5.37;;;;;;;35.09;22.63;99143.67;1807502;79;20972;-55
2022/04/11 07:32:37;;;;;;;9.28;5.00;;;;;;;35.00;22.92;99152.67;1806842;79;21015;-55
2022/04/11 07:35:06;;;;;;;8.18;4.80;;;;;;;34.79;23.04;99146.47;1807216;79;21553;-54
2022/04/11 07:37:33;;;;;;;7.00;4.60;;;;;;;34.57;23.03;99138.72;1806630;79;21447;-55
2022/04/11 07:40:02;;;;;;;7.65;4.83;;;;;;;34.57;23.29;99142.00;1807619;79;21141;-55
2022/04/11 07:42:29;;;;;;;11.22;5.05;;;;;;;34.79;22.84;99140.28;1807599;79;20943;-55
2022/04/11 07:44:58;;;;;;;10.40;5.15;;;;;;;34.53;22.95;99140.61;1795440;79;21031;-55
2022/04/11 07:47:25;;;;;;;10.75;5.28;;;;;;;34.74;23.41;99137.90;1806812;79;21644;-56
2022/04/11 07:49:53;;;;;;;12.70;5.00;;;;;;;35.31;22.48;99137.06;1807099;79;21029;-56
2022/04/11 07:52:21;;;;;;;10.30;4.70;;;;;;;35.34;22.36;99128.16;1807405;79;21261;-56
2022/04/11 07:54:49;;;;;;;9.15;5.00;;;;;;;35.27;22.40;99133.53;1806837;77;21085;-55
2022/04/11 07:57:16;;;;;;;8.08;5.87;;;;;;;34.92;22.67;99130.72;1806529;79;20991;-59
2022/04/11 07:59:43;;;;;;;7.97;5.47;;;;;;;35.14;22.54;99128.22;1806572;79;21518;-54
2022/04/11 08:02:09;;;;;;;10.05;5.22;;;;;;;35.20;22.07;99123.44;1807227;79;21089;-54
2022/04/11 08:04:37;;;;;;;8.63;5.37;;;;;;;34.55;22.34;99120.73;1806238;79;21165;-55
2022/04/11 08:07:04;;;;;;;8.70;4.95;;;;;;;34.43;22.75;99120.94;1807391;79;21505;-56
2022/04/11 08:09:31;;;;;;;7.33;4.70;;;;;;;34.06;22.94;99116.30;1807102;79;21464;-55
2022/04/11 08:11:59;;;;;;;8.40;4.45;;;;;;;34.11;22.75;99119.25;1796463;79;20998;-54
2022/04/11 08:14:26;;;;;;;9.40;5.00;;;;;;;33.88;23.05;99120.68;1815016;78;21101;-54
2022/04/11 08:16:54;;;;;;;9.25;6.08;;;;;;;34.00;22.82;99116.41;1824846;77;20939;-55
2022/04/11 08:19:21;;;;;;;8.10;4.62;;;;;;;34.21;22.62;99063.16;1822916;78;21064;-59
2022/04/11 08:21:47;;;;;;;11.50;4.42;;;;;;;34.51;22.00;99109.09;1825774;77;21819;-57
2022/04/11 08:24:15;;;;;;;8.83;4.83;;;;;;;35.03;21.78;99105.89;1825474;77;20974;-56
2022/04/11 08:26:41;;;;;;;9.98;4.97;;;;;;;35.16;21.23;99101.52;1825979;77;21056;-55
2022/04/11 08:29:09;;;;;;;9.40;4.95;;;;;;;35.23;21.00;99096.95;1824084;78;21226;-54
2022/04/11 08:31:36;;;;;;;10.10;4.87;;;;;;;35.07;21.32;99093.73;1824008;77;20911;-56
2022/04/11 08:34:03;;;;;;;10.85;4.92;;;;;;;35.18;21.21;99093.81;1824962;77;21093;-56
2022/04/11 08:36:30;;;;;;;9.63;5.15;;;;;;;35.44;20.99;99086.04;1825543;77;20978;-54
2022/04/11 08:38:56;;;;;;;8.83;4.62;;;;;;;35.56;20.70;99083.80;1825650;77;21508;-56
2022/04/11 08:41:23;;;;;;;8.55;4.62;;;;;;;35.84;20.39;99072.91;1824603;77;22252;-60
2022/04/11 08:43:50;;;;;;;7.85;4.47;;;;;;;36.02;20.40;99070.27;1823635;77;20998;-55
2022/04/11 08:46:17;;;;;;;9.03;5.15;;;;;;;36.35;20.07;99069.77;1824905;77;20962;-55
2022/04/11 08:48:44;;;;;;;10.53;5.87;;;;;;;36.53;19.72;99063.82;1824825;77;21025;-54
2022/04/11 08:51:11;;;;;;;14.43;5.67;;;;;;;36.65;19.39;99059.36;1824762;77;21062;-55
2022/04/11 08:53:38;;;;;;;9.95;4.80;;;;;;;36.55;19.58;99065.55;1822883;78;21256;-55
2022/04/11 08:56:06;;;;;;;12.53;4.60;;;;;;;36.69;19.53;99060.13;1823385;78;21025;-56
2022/04/11 08:58:34;;;;;;;9.33;4.30;;;;;;;36.98;19.41;99055.50;1824686;77;20975;-55
2022/04/11 09:01:01;;;;;;;12.88;4.97;;;;;;;37.46;18.49;99055.60;1824521;77;21492;-56
2022/04/11 09:03:28;;;;;;;8.28;4.47;;;;;;;37.13;18.75;99045.39;1824069;77;20919;-61
2022/04/11 09:06:09;;;;;;;7.75;4.53;;;;;;;36.87;18.95;99041.13;1823887;77;21634;-55
2022/04/11 09:08:58;;;;;;;6.72;4.08;;;;;;;36.81;18.72;99035.88;1825950;77;20950;-56
2022/04/11 09:11:37;;;;;;;8.83;4.58;;;;;;;36.75;18.42;99040.17;1824676;77;21445;-55
2022/04/11 09:14:08;;;;;;;9.13;4.58;;;;;;;36.90;17.41;99047.14;1817059;77;21069;-55
2022/04/11 09:16:51;;;;;;;7.67;4.10;;;;;;;36.48;17.28;99034.33;1785639;80;21485;-55
2022/04/11 09:19:20;;;;;;;6.83;4.03;;;;;;;36.06;17.81;99035.20;1788428;78;21311;-55
2022/04/11 09:21:50;;;;;;;9.13;4.20;;;;;;;36.08;17.67;99030.00;1788409;78;26801;-56
2022/04/11 09:24:19;;;;;;;7.97;4.22;;;;;;;35.89;18.05;99035.16;1788329;78;20915;-55
2022/04/11 09:26:48;;;;;;;7.35;4.17;;;;;;;35.62;18.18;99029.25;1788001;78;20967;-57
2022/04/11 09:29:15;;;;;;;5.35;3.70;;;;;;;35.21;18.62;99031.53;1785817;80;21025;-56
2022/04/11 09:31:42;;;;;;;9.10;4.53;;;;;;;34.17;19.23;99035.84;1785080;80;21250;-55
2022/04/11 09:34:21;;;;;;;7.58;3.80;;;;;;;34.17;19.23;99035.84;1762144;80;21059;-55
2022/04/11 09:36:57;;;;;;;8.00;3.67;;;;;;;33.48;20.08;99022.09;1783622;79;20958;-55
2022/04/11 09:39:26;;;;;;;7.33;3.45;;;;;;;33.38;20.42;99028.13;1785921;80;20934;-55
2022/04/11 09:41:53;;;;;;;8.38;4.17;;;;;;;33.43;20.42;99017.77;1785909;80;21694;-56
2022/04/11 09:44:28;;;;;;;8.95;4.12;;;;;;;33.54;20.57;99020.64;1785439;79;21861;-64
2022/04/11 09:47:01;;;;;;;8.55;3.75;;;;;;;33.70;20.52;99015.03;1785821;80;21658;-55
2022/04/11 09:49:31;;;;;;;8.90;3.45;;;;;;;33.85;20.09;99005.17;1790006;78;21144;-55
2022/04/11 09:52:13;;;;;;;12.37;4.35;;;;;;;33.75;20.11;99013.34;1774305;80;21101;-56
2022/04/11 09:54:44;;;;;;;8.23;3.58;;;;;;;33.38;20.25;99011.92;1785754;80;21461;-55
2022/04/11 09:57:14;;;;;;;7.37;3.75;;;;;;;33.38;20.33;99011.34;1785856;80;21768;-55
2022/04/11 09:59:41;;;;;;;6.50;3.55;;;;;;;33.41;20.38;98999.01;1788236;78;21500;-55
2022/04/11 10:02:10;;;;;;;8.63;4.15;;;;;;;33.52;20.44;99010.76;1785371;79;21524;-55
2022/04/11 10:04:38;;;;;;;11.68;3.42;;;;;;;33.56;20.46;98991.31;1791220;78;20907;-56
2022/04/11 10:07:12;;;;;;;9.18;3.60;;;;;;;33.79;20.30;99008.79;1785978;80;20998;-58
2022/04/11 10:09:40;;;;;;;8.75;3.62;;;;;;;33.84;19.82;98994.16;1785712;79;21225;-61
2022/04/11 10:12:08;;;;;;;8.70;3.77;;;;;;;33.84;20.01;98977.36;1785367;80;21010;-56
2022/04/11 10:14:35;;;;;;;9.30;3.72;;;;;;;33.87;20.08;98979.91;1796781;78;21559;-56
2022/04/11 10:17:03;;;;;;;5.50;3.62;;;;;;;33.92;20.10;98980.14;1825913;77;20947;-55
2022/04/11 10:19:32;;;;;;;8.33;3.95;;;;;;;34.17;20.09;98980.40;1825386;77;20979;-56
2022/04/11 10:22:06;;;;;;;8.60;3.85;;;;;;;34.41;19.87;98979.09;1813087;78;21387;-55
2022/04/11 10:24:43;;;;;;;8.73;3.87;;;;;;;34.54;19.57;98975.73;1824578;77;21520;-56
2022/04/11 10:27:25;;;;;;;8.75;3.87;;;;;;;34.90;19.44;98959.75;1823511;78;20932;-57
2022/04/11 10:29:54;;;;;;;8.13;4.17;;;;;;;35.22;18.44;98967.28;1824002;78;21085;-57
2022/04/11 10:32:24;;;;;;;9.08;4.25;;;;;;;35.04;19.02;98969.89;1824143;78;20954;-56
2022/04/11 10:35:01;;;;;;;6.10;3.45;;;;;;;34.39;19.73;98963.20;1824897;77;26954;-62
2022/04/11 10:37:45;;;;;;;12.00;4.42;;;;;;;33.95;20.29;98966.66;1824494;77;21002;-56
2022/04/11 10:40:23;;;;;;;10.82;3.87;;;;;;;33.66;20.52;98962.88;1815153;78;21074;-56
2022/04/11 10:43:12;;;;;;;9.13;4.03;;;;;;;33.48;20.99;98955.13;1823778;78;20970;-56
2022/04/11 10:45:50;;;;;;;11.85;4.28;;;;;;;33.78;21.04;98961.27;1751956;80;21437;-54
2022/04/11 10:48:24;;;;;;;7.15;3.83;;;;;;;33.88;20.46;98951.14;1783952;77;20950;-54
2022/04/11 10:50:57;;;;;;;9.03;4.25;;;;;;;33.74;20.75;98956.97;1732808;80;20894;-55
2022/04/11 10:53:31;;;;;;;7.22;3.95;;;;;;;33.49;20.97;98954.78;1756490;80;20964;-56
2022/04/11 10:56:10;;;;;;;8.80;3.98;;;;;;;33.74;20.71;98943.45;1785192;77;20985;-56
2022/04/11 10:58:51;;;;;;;7.90;3.90;;;;;;;34.08;20.64;98931.46;1738257;79;20991;-56
2022/04/11 11:01:50;;;;;;;8.85;4.20;;;;;;;34.38;20.27;98921.08;1762519;79;21947;-57
2022/04/11 11:04:24;;;;;;;7.17;4.55;;;;;;;34.68;19.58;98920.16;1798562;77;21476;-55
2022/04/11 11:07:28;;;;;;;6.97;3.60;;;;;;;34.97;18.66;98916.47;1763613;79;21061;-55
2022/04/11 11:10:03;;;;;;;9.98;4.10;;;;;;;35.27;18.06;98908.66;1765741;77;21119;-55
2022/04/11 11:12:32;;;;;;;11.12;5.15;;;;;;;35.41;18.39;98907.37;1767907;77;22219;-61
2022/04/11 11:15:03;;;;;;;11.10;4.58;;;;;;;35.50;18.17;98903.76;1786361;77;22232;-55
2022/04/11 11:17:56;;;;;;;8.75;4.42;;;;;;;35.72;17.59;98905.14;1760310;79;21049;-55
2022/04/11 11:20:27;;;;;;;9.05;4.50;;;;;;;35.91;17.89;98906.13;1783193;78;21005;-56
2022/04/11 11:23:21;;;;;;;9.85;4.58;;;;;;;36.25;17.59;98885.44;1775252;80;21930;-56
2022/04/11 11:25:50;;;;;;;10.28;4.17;;;;;;;36.57;17.14;98887.38;1787597;78;21014;-57
2022/04/11 11:28:21;;;;;;;9.68;4.87;;;;;;;37.06;16.92;98870.17;1787567;78;21481;-56
2022/04/11 11:30:50;;;;;;;10.32;4.55;;;;;;;37.39;16.36;98893.30;1763748;79;20991;-59
2022/04/11 11:33:19;;;;;;;10.85;4.30;;;;;;;37.03;16.44;98885.12;1785148;80;20989;-57
2022/04/11 11:35:51;;;;;;;10.35;3.95;;;;;;;36.82;16.63;98881.27;1785207;80;21516;-63
2022/04/11 11:38:28;;;;;;;11.15;4.70;;;;;;;36.68;16.82;98890.25;1787783;78;20880;-57